KFFT

Capital City Airport

Frankfort, Kentucky, USA
METAR KFFT 211453Z AUTO 02003KT 10SM CLR M11/M14 A3056 RMK AO2 SLP364 I3000 T11111139 51035 $
Observed Flight Rules
Jan-21 @ 14:53 UTC (an hour ago) Visual Flight Rules
Wind Visibility Clouds
20° at 3 knots 10 miles
  • Clear skies
Temperatures Readings
Current -11°C / 12°F
Dewpoint -14°C / 7°F
Humidity 79%
Altimeter 30.56" Hg
Pressure 1036.4 hPa
Elevation 236
METAR KFFT 211453Z AUTO 02003KT 10SM CLR M11/M14 A3056 RMK AO2 SLP364 I3000 T11111139 51035 $
Observed Flight Rules
Jan-21 @ 14:53 UTC
(an hour ago)
VFR
Wind Visibility
20° at 3 knots 10 miles
Clouds
  • Clear skies
Temperature Dewpoint
-11°C / 12°F -14°C / 7°F
Humidity Altimeter Pressure
79% 30.56" Hg 1036.4 hPa